sensor_id;sensor_type;location;lat;lon;timestamp;pressure;altitude;pressure_sealevel;temperature;humidity
65227;BME280;51805;49.012;12.104;2023-05-21T00:00:33;97557.16;;;23.19;41.25
65227;BME280;51805;49.012;12.104;2023-05-21T00:02:58;97548.31;;;23.13;41.17
65227;BME280;51805;49.012;12.104;2023-05-21T00:05:23;97548.50;;;23.17;41.40
65227;BME280;51805;49.012;12.104;2023-05-21T00:07:49;97552.25;;;23.21;41.28
65227;BME280;51805;49.012;12.104;2023-05-21T00:10:14;97536.06;;;23.16;41.34
65227;BME280;51805;49.012;12.104;2023-05-21T00:12:39;97558.72;;;23.25;41.40
65227;BME280;51805;49.012;12.104;2023-05-21T00:15:05;97541.72;;;23.19;41.25
65227;BME280;51805;49.012;12.104;2023-05-21T00:17:30;97548.16;;;23.23;41.45
65227;BME280;51805;49.012;12.104;2023-05-21T00:19:55;97524.22;;;23.12;41.40
65227;BME280;51805;49.012;12.104;2023-05-21T00:22:21;97537.59;;;23.22;41.42
65227;BME280;51805;49.012;12.104;2023-05-21T00:24:46;97526.53;;;23.18;41.52
65227;BME280;51805;49.012;12.104;2023-05-21T00:27:12;97513.44;;;23.07;41.65
65227;BME280;51805;49.012;12.104;2023-05-21T00:29:38;97527.94;;;23.16;41.57
65227;BME280;51805;49.012;12.104;2023-05-21T00:32:03;97528.44;;;23.18;41.56
65227;BME280;51805;49.012;12.104;2023-05-21T00:34:29;97537.59;;;23.22;41.69
65227;BME280;51805;49.012;12.104;2023-05-21T00:36:54;97532.47;;;23.20;41.69
65227;BME280;51805;49.012;12.104;2023-05-21T00:39:20;97525.81;;;23.13;41.56
65227;BME280;51805;49.012;12.104;2023-05-21T00:41:45;97530.41;;;23.12;41.74
65227;BME280;51805;49.012;12.104;2023-05-21T00:44:11;97540.31;;;23.22;41.42
65227;BME280;51805;49.012;12.104;2023-05-21T00:46:36;97520.16;;;23.09;41.75
65227;BME280;51805;49.012;12.104;2023-05-21T00:49:01;97523.09;;;23.13;41.67
65227;BME280;51805;49.012;12.104;2023-05-21T00:51:26;97528.75;;;23.16;41.61
65227;BME280;51805;49.012;12.104;2023-05-21T00:53:53;97530.88;;;23.19;41.72
65227;BME280;51805;49.012;12.104;2023-05-21T00:56:19;97527.34;;;23.19;41.71
65227;BME280;51805;49.012;12.104;2023-05-21T00:58:45;97534.38;;;23.20;41.84
65227;BME280;51805;49.012;12.104;2023-05-21T01:01:11;97528.44;;;23.18;41.65
65227;BME280;51805;49.012;12.104;2023-05-21T01:03:36;97514.72;;;23.09;41.88
65227;BME280;51805;49.012;12.104;2023-05-21T01:06:01;97528.50;;;23.13;41.82
65227;BME280;51805;49.012;12.104;2023-05-21T01:08:27;97542.50;;;23.20;41.96
65227;BME280;51805;49.012;12.104;2023-05-21T01:10:52;97507.56;;;22.99;42.00
65227;BME280;51805;49.012;12.104;2023-05-21T01:13:20;97539.78;;;23.20;41.77
65227;BME280;51805;49.012;12.104;2023-05-21T01:15:46;97513.44;;;23.07;41.83
65227;BME280;51805;49.012;12.104;2023-05-21T01:18:11;97530.63;;;23.16;42.10
65227;BME280;51805;49.012;12.104;2023-05-21T01:20:37;97532.25;;;23.17;42.23
65227;BME280;51805;49.012;12.104;2023-05-21T01:23:02;97528.44;;;23.18;41.97
65227;BME280;51805;49.012;12.104;2023-05-21T01:25:28;97524.69;;;23.14;42.14
65227;BME280;51805;49.012;12.104;2023-05-21T01:27:53;97518.25;;;23.10;42.00
65227;BME280;51805;49.012;12.104;2023-05-21T01:30:20;97520.91;;;23.15;41.88
65227;BME280;51805;49.012;12.104;2023-05-21T01:35:33;97526.03;;;23.16;42.29
65227;BME280;51805;49.012;12.104;2023-05-21T01:38:13;97525.22;;;23.16;42.20
65227;BME280;51805;49.012;12.104;2023-05-21T01:40:54;97529.81;;;23.15;42.37
65227;BME280;51805;49.012;12.104;2023-05-21T01:43:21;97513.44;;;23.07;42.35
65227;BME280;51805;49.012;12.104;2023-05-21T01:45:47;97511.53;;;23.07;42.21
65227;BME280;51805;49.012;12.104;2023-05-21T01:48:16;97503.59;;;23.11;42.33
65227;BME280;51805;49.012;12.104;2023-05-21T01:50:44;97506.13;;;23.07;42.33
65227;BME280;51805;49.012;12.104;2023-05-21T01:53:09;97504.78;;;23.04;42.29
65227;BME280;51805;49.012;12.104;2023-05-21T01:55:35;97500.47;;;23.03;42.48
65227;BME280;51805;49.012;12.104;2023-05-21T01:58:00;97507.94;;;23.12;42.49
65227;BME280;51805;49.012;12.104;2023-05-21T02:00:25;97518.78;;;23.12;42.36
65227;BME280;51805;49.012;12.104;2023-05-21T02:02:51;97506.31;;;23.11;42.55
65227;BME280;51805;49.012;12.104;2023-05-21T02:05:17;97499.28;;;23.10;42.47
65227;BME280;51805;49.012;12.104;2023-05-21T02:07:43;97492.84;;;23.06;42.53
65227;BME280;51805;49.012;12.104;2023-05-21T02:10:09;97516.56;;;23.14;42.51
65227;BME280;51805;49.012;12.104;2023-05-21T02:12:34;97505.28;;;23.07;42.50
65227;BME280;51805;49.012;12.104;2023-05-21T02:15:00;97482.66;;;22.97;42.64
65227;BME280;51805;49.012;12.104;2023-05-21T02:17:25;97503.59;;;23.11;42.28
65227;BME280;51805;49.012;12.104;2023-05-21T02:19:50;97510.13;;;23.10;42.73
65227;BME280;51805;49.012;12.104;2023-05-21T02:22:16;97497.22;;;23.01;42.52
65227;BME280;51805;49.012;12.104;2023-05-21T02:24:41;97495.28;;;23.07;42.46
65227;BME280;51805;49.012;12.104;2023-05-21T02:27:07;97494.69;;;23.10;42.56
65227;BME280;51805;49.012;12.104;2023-05-21T02:29:32;97494.47;;;23.07;42.34
65227;BME280;51805;49.012;12.104;2023-05-21T02:31:57;97500.41;;;23.09;42.57
65227;BME280;51805;49.012;12.104;2023-05-21T02:34:22;97496.06;;;23.08;42.51
65227;BME280;51805;49.012;12.104;2023-05-21T02:36:48;97494.47;;;23.07;42.62
65227;BME280;51805;49.012;12.104;2023-05-21T02:39:13;97516.06;;;23.12;42.71
65227;BME280;51805;49.012;12.104;2023-05-21T02:41:38;97507.72;;;23.08;42.65
65227;BME280;51805;49.012;12.104;2023-05-21T02:44:04;97487.50;;;23.00;42.69
65227;BME280;51805;49.012;12.104;2023-05-21T02:46:29;97491.28;;;22.99;42.54
65227;BME280;51805;49.012;12.104;2023-05-21T02:48:54;97508.59;;;23.03;42.69
65227;BME280;51805;49.012;12.104;2023-05-21T02:51:19;97501.88;;;23.01;42.60
65227;BME280;51805;49.012;12.104;2023-05-21T02:53:45;97499.16;;;23.01;42.69
65227;BME280;51805;49.012;12.104;2023-05-21T02:56:10;97493.22;;;22.99;42.60
65227;BME280;51805;49.012;12.104;2023-05-21T02:58:35;97493.44;;;23.02;42.61
65227;BME280;51805;49.012;12.104;2023-05-21T03:01:01;97491.03;;;23.01;42.60
65227;BME280;51805;49.012;12.104;2023-05-21T03:03:26;97496.66;;;23.04;42.71
65227;BME280;51805;49.012;12.104;2023-05-21T03:05:51;97499.88;;;23.07;42.87
65227;BME280;51805;49.012;12.104;2023-05-21T03:08:16;97483.56;;;22.93;42.82
65227;BME280;51805;49.012;12.104;2023-05-21T03:10:42;97478.13;;;22.93;42.79
65227;BME280;51805;49.012;12.104;2023-05-21T03:13:07;97460.19;;;22.78;42.51
65227;BME280;51805;49.012;12.104;2023-05-21T03:15:32;97505.28;;;23.07;42.91
65227;BME280;51805;49.012;12.104;2023-05-21T03:17:58;97483.84;;;22.91;43.17
65227;BME280;51805;49.012;12.104;2023-05-21T03:20:23;97497.81;;;22.98;42.82
65227;BME280;51805;49.012;12.104;2023-05-21T03:22:48;97501.06;;;23.00;42.80
65227;BME280;51805;49.012;12.104;2023-05-21T03:25:14;97491.59;;;22.98;42.88
65227;BME280;51805;49.012;12.104;2023-05-21T03:27:39;97502.34;;;23.03;43.01
65227;BME280;51805;49.012;12.104;2023-05-21T03:30:05;97496.22;;;22.97;42.95
65227;BME280;51805;49.012;12.104;2023-05-21T03:32:30;97494.59;;;22.96;42.89
65227;BME280;51805;49.012;12.104;2023-05-21T03:34:55;97493.81;;;22.96;42.97
65227;BME280;51805;49.012;12.104;2023-05-21T03:37:21;97488.69;;;22.94;42.82
65227;BME280;51805;49.012;12.104;2023-05-21T03:39:46;97507.19;;;23.06;42.96
65227;BME280;51805;49.012;12.104;2023-05-21T03:42:11;97506.69;;;23.04;42.74
65227;BME280;51805;49.012;12.104;2023-05-21T03:44:36;97503.75;;;23.00;42.94
65227;BME280;51805;49.012;12.104;2023-05-21T03:47:02;97512.91;;;23.04;42.90
65227;BME280;51805;49.012;12.104;2023-05-21T03:49:27;97508.31;;;23.05;42.98
65227;BME280;51805;49.012;12.104;2023-05-21T03:51:52;97514.53;;;23.06;42.98
65227;BME280;51805;49.012;12.104;2023-05-21T03:54:18;97493.81;;;22.96;42.89
65227;BME280;51805;49.012;12.104;2023-05-21T03:56:43;97493.00;;;22.95;42.91
65227;BME280;51805;49.012;12.104;2023-05-21T03:59:08;97489.97;;;22.97;42.85
65227;BME280;51805;49.012;12.104;2023-05-21T04:01:33;97511.31;;;23.03;43.07
65227;BME280;51805;49.012;12.104;2023-05-21T04:03:59;97511.00;;;23.05;43.10
65227;BME280;51805;49.012;12.104;2023-05-21T04:06:24;97496.00;;;22.94;43.08
65227;BME280;51805;49.012;12.104;2023-05-21T04:08:49;97511.31;;;23.03;42.84
65227;BME280;51805;49.012;12.104;2023-05-21T04:11:14;97503.31;;;22.93;42.96
65227;BME280;51805;49.012;12.104;2023-05-21T04:13:40;97510.25;;;22.99;43.11
65227;BME280;51805;49.012;12.104;2023-05-21T04:16:05;97511.31;;;23.03;43.05
65227;BME280;51805;49.012;12.104;2023-05-21T04:18:30;97505.88;;;23.03;43.11
65227;BME280;51805;49.012;12.104;2023-05-21T04:20:56;97495.69;;;22.95;43.04
65227;BME280;51805;49.012;12.104;2023-05-21T04:23:21;97502.13;;;22.99;43.11
65227;BME280;51805;49.012;12.104;2023-05-21T04:25:46;97491.88;;;22.96;43.30
65227;BME280;51805;49.012;12.104;2023-05-21T04:28:11;97501.63;;;22.97;43.34
65227;BME280;51805;49.012;12.104;2023-05-21T04:30:37;97505.06;;;23.03;43.29
65227;BME280;51805;49.012;12.104;2023-05-21T04:33:02;97510.72;;;23.07;43.19
65227;BME280;51805;49.012;12.104;2023-05-21T04:35:27;97503.75;;;23.00;43.20
65227;BME280;51805;49.012;12.104;2023-05-21T04:37:53;97505.38;;;23.01;43.41
65227;BME280;51805;49.012;12.104;2023-05-21T04:40:18;97503.75;;;23.00;43.41
65227;BME280;51805;49.012;12.104;2023-05-21T04:42:44;97506.41;;;23.06;43.32
65227;BME280;51805;49.012;12.104;2023-05-21T04:45:09;97496.22;;;22.97;43.50
65227;BME280;51805;49.012;12.104;2023-05-21T04:47:34;97515.56;;;23.10;43.50
65227;BME280;51805;49.012;12.104;2023-05-21T04:50:01;97512.03;;;23.09;43.39
65227;BME280;51805;49.012;12.104;2023-05-21T04:52:26;97513.44;;;23.07;43.46
65227;BME280;51805;49.012;12.104;2023-05-21T04:54:51;97515.56;;;23.10;43.51
65227;BME280;51805;49.012;12.104;2023-05-21T04:57:17;97503.16;;;23.03;43.26
65227;BME280;51805;49.012;12.104;2023-05-21T04:59:42;97513.94;;;23.09;43.48
65227;BME280;51805;49.012;12.104;2023-05-21T05:02:07;97516.56;;;23.14;43.47
65227;BME280;51805;49.012;12.104;2023-05-21T05:04:32;97495.63;;;23.00;43.27
65227;BME280;51805;49.012;12.104;2023-05-21T05:06:58;97508.53;;;23.09;43.50
65227;BME280;51805;49.012;12.104;2023-05-21T05:09:23;97502.06;;;23.04;43.59
65227;BME280;51805;49.012;12.104;2023-05-21T05:11:48;97502.06;;;23.04;43.60
65227;BME280;51805;49.012;12.104;2023-05-21T05:14:13;97507.72;;;23.08;43.57
65227;BME280;51805;49.012;12.104;2023-05-21T05:16:39;97501.41;;;23.13;43.45
65227;BME280;51805;49.012;12.104;2023-05-21T05:19:04;97513.25;;;23.17;43.50
65227;BME280;51805;49.012;12.104;2023-05-21T05:21:29;97498.75;;;23.08;43.62
65227;BME280;51805;49.012;12.104;2023-05-21T05:23:54;97496.06;;;23.08;43.74
65227;BME280;51805;49.012;12.104;2023-05-21T05:26:20;97501.41;;;23.13;43.34
65227;BME280;51805;49.012;12.104;2023-05-21T05:28:45;97505.22;;;23.12;43.68
65227;BME280;51805;49.012;12.104;2023-05-21T05:31:10;97512.25;;;23.13;43.37
65227;BME280;51805;49.012;12.104;2023-05-21T05:33:36;97491.22;;;23.04;43.48
65227;BME280;51805;49.012;12.104;2023-05-21T05:36:01;97512.19;;;23.18;43.50
65227;BME280;51805;49.012;12.104;2023-05-21T05:38:26;97510.56;;;23.17;43.33
65227;BME280;51805;49.012;12.104;2023-05-21T05:40:52;97514.81;;;23.23;43.40
65227;BME280;51805;49.012;12.104;2023-05-21T05:43:17;97515.91;;;23.22;43.51
65227;BME280;51805;49.012;12.104;2023-05-21T05:45:42;97513.78;;;23.19;43.64
65227;BME280;51805;49.012;12.104;2023-05-21T05:48:07;97504.53;;;23.20;43.52
65227;BME280;51805;49.012;12.104;2023-05-21T05:50:33;97517.53;;;23.23;43.48
65227;BME280;51805;49.012;12.104;2023-05-21T05:52:58;97498.09;;;23.16;43.37
65227;BME280;51805;49.012;12.104;2023-05-21T05:55:23;97511.00;;;23.24;43.32
65227;BME280;51805;49.012;12.104;2023-05-21T05:57:49;97519.13;;;23.24;43.49
65227;BME280;51805;49.012;12.104;2023-05-21T06:00:14;97519.09;;;23.29;43.47
65227;BME280;51805;49.012;12.104;2023-05-21T06:02:40;97516.69;;;23.27;43.25
65227;BME280;51805;49.012;12.104;2023-05-21T06:05:05;97516.44;;;23.24;43.48
65227;BME280;51805;49.012;12.104;2023-05-21T06:07:31;97504.06;;;23.18;43.38
65227;BME280;51805;49.012;12.104;2023-05-21T06:09:57;97510.47;;;23.22;43.29
65227;BME280;51805;49.012;12.104;2023-05-21T06:12:22;97513.69;;;23.29;43.46
65227;BME280;51805;49.012;12.104;2023-05-21T06:14:47;97525.59;;;23.28;43.29
65227;BME280;51805;49.012;12.104;2023-05-21T06:17:13;97520.69;;;23.30;43.50
65227;BME280;51805;49.012;12.104;2023-05-21T06:19:38;97523.72;;;23.28;43.31
65227;BME280;51805;49.012;12.104;2023-05-21T06:22:03;97513.16;;;23.27;43.42
65227;BME280;51805;49.012;12.104;2023-05-21T06:24:29;97513.19;;;23.22;43.46
65227;BME280;51805;49.012;12.104;2023-05-21T06:26:54;97493.88;;;23.10;43.16
65227;BME280;51805;49.012;12.104;2023-05-21T06:29:19;97520.09;;;23.33;43.47
65227;BME280;51805;49.012;12.104;2023-05-21T06:31:45;97520.09;;;23.33;43.48
65227;BME280;51805;49.012;12.104;2023-05-21T06:34:10;97495.91;;;23.18;43.46
65227;BME280;51805;49.012;12.104;2023-05-21T06:36:35;97514.69;;;23.33;43.38
65227;BME280;51805;49.012;12.104;2023-05-21T06:39:00;97525.53;;;23.33;43.65
65227;BME280;51805;49.012;12.104;2023-05-21T06:41:26;97507.22;;;23.25;43.53
65227;BME280;51805;49.012;12.104;2023-05-21T06:43:52;97509.84;;;23.30;43.36
65227;BME280;51805;49.012;12.104;2023-05-21T06:46:17;97519.81;;;23.34;43.62
65227;BME280;51805;49.012;12.104;2023-05-21T06:48:43;97519.00;;;23.34;43.55
65227;BME280;51805;49.012;12.104;2023-05-21T06:51:08;97509.84;;;23.30;43.50
65227;BME280;51805;49.012;12.104;2023-05-21T06:53:33;97505.03;;;23.27;43.46
65227;BME280;51805;49.012;12.104;2023-05-21T06:55:59;97507.97;;;23.30;43.55
65227;BME280;51805;49.012;12.104;2023-05-21T06:58:24;97516.38;;;23.29;43.36
65227;BME280;51805;49.012;12.104;2023-05-21T07:00:49;97507.44;;;23.28;43.50
65227;BME280;51805;49.012;12.104;2023-05-21T07:03:14;97515.22;;;23.35;43.38
65227;BME280;51805;49.012;12.104;2023-05-21T07:05:40;97523.84;;;23.37;43.38
65227;BME280;51805;49.012;12.104;2023-05-21T07:08:05;97523.84;;;23.37;43.57
65227;BME280;51805;49.012;12.104;2023-05-21T07:10:30;97524.34;;;23.39;43.63
65227;BME280;51805;49.012;12.104;2023-05-21T07:12:56;97516.50;;;23.37;43.46
65227;BME280;51805;49.012;12.104;2023-05-21T07:15:22;97501.78;;;23.25;43.53
65227;BME280;51805;49.012;12.104;2023-05-21T07:17:47;97507.06;;;23.35;43.77
65227;BME280;51805;49.012;12.104;2023-05-21T07:20:12;97516.22;;;23.39;43.63
65227;BME280;51805;49.012;12.104;2023-05-21T07:22:38;97502.31;;;23.27;43.87
65227;BME280;51805;49.012;12.104;2023-05-21T07:25:04;97502.84;;;23.29;44.03
65227;BME280;51805;49.012;12.104;2023-05-21T07:27:30;97502.84;;;23.29;43.77
65227;BME280;51805;49.012;12.104;2023-05-21T07:29:55;97505.53;;;23.29;43.70
65227;BME280;51805;49.012;12.104;2023-05-21T07:32:20;97502.25;;;23.32;43.81
65227;BME280;51805;49.012;12.104;2023-05-21T07:34:46;97521.56;;;23.44;43.96
65227;BME280;51805;49.012;12.104;2023-05-21T07:37:11;97506.19;;;23.39;43.94
65227;BME280;51805;49.012;12.104;2023-05-21T07:39:36;97477.66;;;23.23;43.83
65227;BME280;51805;49.012;12.104;2023-05-21T07:42:02;97510.66;;;23.49;43.94
65227;BME280;51805;49.012;12.104;2023-05-21T07:44:27;97521.19;;;23.50;44.25
65227;BME280;51805;49.012;12.104;2023-05-21T07:46:52;97510.66;;;23.49;44.43
65227;BME280;51805;49.012;12.104;2023-05-21T07:49:17;97515.78;;;23.50;44.17
65227;BME280;51805;49.012;12.104;2023-05-21T07:51:43;97505.72;;;23.51;44.08
65227;BME280;51805;49.012;12.104;2023-05-21T07:54:09;97520.72;;;23.62;44.17
65227;BME280;51805;49.012;12.104;2023-05-21T07:56:34;97522.06;;;23.64;44.48
65227;BME280;51805;49.012;12.104;2023-05-21T07:58:59;97515.88;;;23.59;44.31
65227;BME280;51805;49.012;12.104;2023-05-21T08:01:26;97505.03;;;23.59;44.83
65227;BME280;51805;49.012;12.104;2023-05-21T08:03:52;97517.63;;;23.68;44.92
65227;BME280;51805;49.012;12.104;2023-05-21T08:06:17;97500.13;;;23.61;44.73
65227;BME280;51805;49.012;12.104;2023-05-21T08:08:42;97496.91;;;23.59;44.91
65227;BME280;51805;49.012;12.104;2023-05-21T08:11:07;97514.03;;;23.73;44.92
65227;BME280;51805;49.012;12.104;2023-05-21T08:13:33;97508.28;;;23.61;45.02
65227;BME280;51805;49.012;12.104;2023-05-21T08:15:58;97526.47;;;23.74;44.95
65227;BME280;51805;49.012;12.104;2023-05-21T08:18:23;97514.91;;;23.68;44.72
65227;BME280;51805;49.012;12.104;2023-05-21T08:20:48;97508.38;;;23.69;44.71
65227;BME280;51805;49.012;12.104;2023-05-21T08:23:14;97522.69;;;23.75;44.76
65227;BME280;51805;49.012;12.104;2023-05-21T08:25:39;97517.84;;;23.72;44.75
65227;BME280;51805;49.012;12.104;2023-05-21T08:28:04;97517.03;;;23.71;44.75
65227;BME280;51805;49.012;12.104;2023-05-21T08:30:30;97526.47;;;23.74;44.83
65227;BME280;51805;49.012;12.104;2023-05-21T08:32:55;97522.47;;;23.71;44.84
65227;BME280;51805;49.012;12.104;2023-05-21T08:35:20;97510.38;;;23.64;44.81
65227;BME280;51805;49.012;12.104;2023-05-21T08:37:45;97524.88;;;23.73;44.77
65227;BME280;51805;49.012;12.104;2023-05-21T08:40:11;97515.44;;;23.70;44.93
65227;BME280;51805;49.012;12.104;2023-05-21T08:42:42;97518.44;;;23.69;44.97
65227;BME280;51805;49.012;12.104;2023-05-21T08:45:10;97504.66;;;23.65;44.99
65227;BME280;51805;49.012;12.104;2023-05-21T08:47:36;97519.22;;;23.69;44.92
65227;BME280;51805;49.012;12.104;2023-05-21T08:50:03;97496.91;;;23.59;45.19
65227;BME280;51805;49.012;12.104;2023-05-21T08:52:30;97522.25;;;23.68;45.08
65227;BME280;51805;49.012;12.104;2023-05-21T08:54:55;97510.38;;;23.64;45.26
65227;BME280;51805;49.012;12.104;2023-05-21T08:57:21;97511.19;;;23.64;45.26
65227;BME280;51805;49.012;12.104;2023-05-21T08:59:49;97502.84;;;23.61;45.39
65227;BME280;51805;49.012;12.104;2023-05-21T09:02:15;97507.16;;;23.62;45.27
65227;BME280;51805;49.012;12.104;2023-05-21T09:04:40;97508.19;;;23.66;45.22
65227;BME280;51805;49.012;12.104;2023-05-21T09:07:06;97510.59;;;23.67;45.18
65227;BME280;51805;49.012;12.104;2023-05-21T09:09:38;97503.38;;;23.63;45.15
65227;BME280;51805;49.012;12.104;2023-05-21T09:12:06;97488.47;;;23.60;45.05
65227;BME280;51805;49.012;12.104;2023-05-21T09:14:32;97494.03;;;23.69;44.92
65227;BME280;51805;49.012;12.104;2023-05-21T09:16:58;97490.50;;;23.68;44.82
65227;BME280;51805;49.012;12.104;2023-05-21T09:19:23;97482.66;;;23.67;44.67
65227;BME280;51805;49.012;12.104;2023-05-21T09:21:51;97480.03;;;23.62;44.39
65227;BME280;51805;49.012;12.104;2023-05-21T09:24:20;97493.72;;;23.70;44.15
65227;BME280;51805;49.012;12.104;2023-05-21T09:26:45;97491.63;;;23.67;43.67
65227;BME280;51805;49.012;12.104;2023-05-21T09:29:11;97499.34;;;23.74;43.63
65227;BME280;51805;49.012;12.104;2023-05-21T09:31:42;97499.03;;;23.75;43.50
65227;BME280;51805;49.012;12.104;2023-05-21T09:34:07;97486.91;;;23.73;43.31
65227;BME280;51805;49.012;12.104;2023-05-21T09:36:36;97489.09;;;23.71;43.19
65227;BME280;51805;49.012;12.104;2023-05-21T09:39:01;97493.03;;;23.78;43.18
65227;BME280;51805;49.012;12.104;2023-05-21T09:41:31;97492.31;;;23.73;43.07
65227;BME280;51805;49.012;12.104;2023-05-21T09:44:05;97498.66;;;23.82;42.79
65227;BME280;51805;49.012;12.104;2023-05-21T09:46:37;97497.06;;;23.81;42.77
65227;BME280;51805;49.012;12.104;2023-05-21T09:49:03;97492.72;;;23.80;42.78
65227;BME280;51805;49.012;12.104;2023-05-21T09:51:28;97495.13;;;23.81;42.55
65227;BME280;51805;49.012;12.104;2023-05-21T09:53:55;97483.28;;;23.77;42.44
65227;BME280;51805;49.012;12.104;2023-05-21T09:56:22;97481.25;;;23.69;42.45
65227;BME280;51805;49.012;12.104;2023-05-21T09:58:50;97490.00;;;23.80;42.35
65227;BME280;51805;49.012;12.104;2023-05-21T10:01:18;97493.25;;;23.82;42.40
65227;BME280;51805;49.012;12.104;2023-05-21T10:03:44;97486.59;;;23.74;42.41
65227;BME280;51805;49.012;12.104;2023-05-21T10:06:12;97502.19;;;23.82;42.33
65227;BME280;51805;49.012;12.104;2023-05-21T10:08:42;97485.09;;;23.82;42.19
65227;BME280;51805;49.012;12.104;2023-05-21T10:11:09;97488.94;;;23.81;42.25
65227;BME280;51805;49.012;12.104;2023-05-21T10:13:38;97493.84;;;23.79;42.10
65227;BME280;51805;49.012;12.104;2023-05-21T10:16:05;97481.88;;;23.80;41.92
65227;BME280;51805;49.012;12.104;2023-05-21T10:18:31;97487.22;;;23.85;41.78
65227;BME280;51805;49.012;12.104;2023-05-21T10:20:57;97486.63;;;23.88;41.44
65227;BME280;51805;49.012;12.104;2023-05-21T10:23:24;97481.88;;;23.80;41.61
65227;BME280;51805;49.012;12.104;2023-05-21T10:25:51;97480.78;;;23.81;41.20
65227;BME280;51805;49.012;12.104;2023-05-21T10:28:17;97485.91;;;23.82;41.22
65227;BME280;51805;49.012;12.104;2023-05-21T10:30:44;97480.09;;;23.89;41.29
65227;BME280;51805;49.012;12.104;2023-05-21T10:33:12;97478.47;;;23.88;40.77
65227;BME280;51805;49.012;12.104;2023-05-21T10:35:39;97488.13;;;23.94;40.76
65227;BME280;51805;49.012;12.104;2023-05-21T10:38:06;97491.38;;;23.96;41.12
65227;BME280;51805;49.012;12.104;2023-05-21T10:40:33;97478.63;;;23.96;41.00
65227;BME280;51805;49.012;12.104;2023-05-21T10:43:20;97475.63;;;23.98;40.69
65227;BME280;51805;49.012;12.104;2023-05-21T10:46:14;97470.84;;;23.90;40.48
65227;BME280;51805;49.012;12.104;2023-05-21T10:51:44;97456.97;;;23.91;39.46
65227;BME280;51805;49.012;12.104;2023-05-21T10:59:42;97476.00;;;24.05;39.50
65227;BME280;51805;49.012;12.104;2023-05-21T11:02:12;97478.72;;;24.05;38.64
65227;BME280;51805;49.012;12.104;2023-05-21T11:04:39;97482.84;;;24.02;39.86
65227;BME280;51805;49.012;12.104;2023-05-21T11:07:05;97480.66;;;24.04;39.45
65227;BME280;51805;49.012;12.104;2023-05-21T11:09:30;97488.81;;;24.04;38.88
65227;BME280;51805;49.012;12.104;2023-05-21T11:11:56;97489.06;;;24.03;39.35
65227;BME280;51805;49.012;12.104;2023-05-21T11:14:35;97479.84;;;24.04;39.27
65227;BME280;51805;49.012;12.104;2023-05-21T11:19:37;97471.41;;;24.05;39.03
65227;BME280;51805;49.012;12.104;2023-05-21T11:22:25;97482.94;;;24.11;38.42
65227;BME280;51805;49.012;12.104;2023-05-21T11:24:51;97475.94;;;24.10;38.58
65227;BME280;51805;49.012;12.104;2023-05-21T11:27:36;97471.59;;;24.09;38.77
65227;BME280;51805;49.012;12.104;2023-05-21T11:30:09;97471.09;;;24.07;38.10
65227;BME280;51805;49.012;12.104;2023-05-21T11:32:39;97476.53;;;24.07;38.60
65227;BME280;51805;49.012;12.104;2023-05-21T11:35:24;97458.22;;;23.99;38.86
65227;BME280;51805;49.012;12.104;2023-05-21T11:37:52;97466.88;;;24.01;38.91
65227;BME280;51805;49.012;12.104;2023-05-21T11:40:27;97482.78;;;24.07;38.13
65227;BME280;51805;49.012;12.104;2023-05-21T11:42:53;97478.13;;;24.08;38.67
65227;BME280;51805;49.012;12.104;2023-05-21T11:45:20;97472.31;;;24.01;38.52
65227;BME280;51805;49.012;12.104;2023-05-21T11:47:47;97485.19;;;24.09;38.51
65227;BME280;51805;49.012;12.104;2023-05-21T11:50:14;97464.63;;;24.03;38.17
65227;BME280;51805;49.012;12.104;2023-05-21T11:52:40;97461.44;;;24.01;38.56
65227;BME280;51805;49.012;12.104;2023-05-21T11:55:05;97470.88;;;24.03;38.36
65227;BME280;51805;49.012;12.104;2023-05-21T11:57:31;97463.03;;;24.02;38.34
65227;BME280;51805;49.012;12.104;2023-05-21T11:59:57;97476.53;;;24.07;38.28
65227;BME280;51805;49.012;12.104;2023-05-21T12:02:24;97468.09;;;24.08;38.49
65227;BME280;51805;49.012;12.104;2023-05-21T12:04:50;97473.22;;;24.10;38.49
65227;BME280;51805;49.012;12.104;2023-05-21T12:07:17;97467.19;;;24.13;38.07
65227;BME280;51805;49.012;12.104;2023-05-21T12:09:44;97469.88;;;24.13;38.48
65227;BME280;51805;49.012;12.104;2023-05-21T12:12:12;97453.22;;;24.06;38.31
65227;BME280;51805;49.012;12.104;2023-05-21T12:14:38;97463.47;;;24.09;38.39
65227;BME280;51805;49.012;12.104;2023-05-21T12:17:04;97462.88;;;24.12;38.51
65227;BME280;51805;49.012;12.104;2023-05-21T12:19:33;97465.44;;;24.17;38.38
65227;BME280;51805;49.012;12.104;2023-05-21T12:22:01;97446.38;;;24.08;38.17
65227;BME280;51805;49.012;12.104;2023-05-21T12:24:26;97462.75;;;24.17;38.43
65227;BME280;51805;49.012;12.104;2023-05-21T12:26:51;97454.59;;;24.17;38.34
65227;BME280;51805;49.012;12.104;2023-05-21T12:29:17;97464.66;;;24.30;37.84
65227;BME280;51805;49.012;12.104;2023-05-21T12:31:49;97462.75;;;24.30;38.02
65227;BME280;51805;49.012;12.104;2023-05-21T12:34:14;97455.22;;;24.27;37.98
65227;BME280;51805;49.012;12.104;2023-05-21T12:36:41;97468.06;;;24.35;37.91
65227;BME280;51805;49.012;12.104;2023-05-21T12:39:07;97467.28;;;24.35;37.85
65227;BME280;51805;49.012;12.104;2023-05-21T12:41:32;97455.41;;;24.31;37.90
65227;BME280;51805;49.012;12.104;2023-05-21T12:43:58;97464.94;;;24.42;37.83
65227;BME280;51805;49.012;12.104;2023-05-21T12:46:23;97468.47;;;24.42;37.94
65227;BME280;51805;49.012;12.104;2023-05-21T12:48:51;97465.47;;;24.44;37.93
65227;BME280;51805;49.012;12.104;2023-05-21T12:51:17;97460.53;;;24.46;37.98
65227;BME280;51805;49.012;12.104;2023-05-21T12:53:42;97476.41;;;24.52;37.60
65227;BME280;51805;49.012;12.104;2023-05-21T12:58:33;97460.41;;;24.51;37.62
65227;BME280;51805;49.012;12.104;2023-05-21T13:00:59;97463.53;;;24.58;37.50